sensor_id;sensor_type;location;lat;lon;timestamp;P1;durP1;ratioP1;P2;durP2;ratioP2
8626;SDS011;4351;51.422;6.794;2023-12-20T00:01:15;12.80;;;8.27;;
8626;SDS011;4351;51.422;6.794;2023-12-20T00:03:43;14.13;;;8.07;;
8626;SDS011;4351;51.422;6.794;2023-12-20T00:06:11;13.83;;;8.40;;
8626;SDS011;4351;51.422;6.794;2023-12-20T00:08:39;15.13;;;8.83;;
8626;SDS011;4351;51.422;6.794;2023-12-20T00:11:07;14.53;;;7.80;;
8626;SDS011;4351;51.422;6.794;2023-12-20T00:13:36;14.57;;;7.90;;
8626;SDS011;4351;51.422;6.794;2023-12-20T00:16:03;13.97;;;8.10;;
8626;SDS011;4351;51.422;6.794;2023-12-20T00:18:31;14.87;;;7.87;;
8626;SDS011;4351;51.422;6.794;2023-12-20T00:20:59;15.03;;;8.70;;
8626;SDS011;4351;51.422;6.794;2023-12-20T00:23:27;15.07;;;8.40;;
8626;SDS011;4351;51.422;6.794;2023-12-20T00:25:55;15.20;;;8.27;;
8626;SDS011;4351;51.422;6.794;2023-12-20T00:28:22;14.70;;;8.40;;
8626;SDS011;4351;51.422;6.794;2023-12-20T00:30:51;11.77;;;8.00;;
8626;SDS011;4351;51.422;6.794;2023-12-20T00:33:19;12.47;;;7.50;;
8626;SDS011;4351;51.422;6.794;2023-12-20T00:35:48;16.13;;;7.60;;
8626;SDS011;4351;51.422;6.794;2023-12-20T00:38:16;10.97;;;6.67;;
8626;SDS011;4351;51.422;6.794;2023-12-20T00:40:43;14.57;;;7.17;;
8626;SDS011;4351;51.422;6.794;2023-12-20T00:43:11;13.50;;;7.60;;
8626;SDS011;4351;51.422;6.794;2023-12-20T00:45:39;11.53;;;6.67;;
8626;SDS011;4351;51.422;6.794;2023-12-20T00:48:09;11.30;;;6.10;;
8626;SDS011;4351;51.422;6.794;2023-12-20T00:50:36;14.03;;;6.70;;
8626;SDS011;4351;51.422;6.794;2023-12-20T00:53:04;12.43;;;6.33;;
8626;SDS011;4351;51.422;6.794;2023-12-20T00:55:32;10.73;;;5.97;;
8626;SDS011;4351;51.422;6.794;2023-12-20T00:58:00;13.07;;;6.33;;
8626;SDS011;4351;51.422;6.794;2023-12-20T01:00:28;10.97;;;6.20;;
8626;SDS011;4351;51.422;6.794;2023-12-20T01:02:55;11.40;;;6.23;;
8626;SDS011;4351;51.422;6.794;2023-12-20T01:05:25;15.03;;;7.00;;
8626;SDS011;4351;51.422;6.794;2023-12-20T01:07:52;15.27;;;6.93;;
8626;SDS011;4351;51.422;6.794;2023-12-20T01:10:20;13.07;;;6.97;;
8626;SDS011;4351;51.422;6.794;2023-12-20T01:12:49;14.33;;;7.37;;
8626;SDS011;4351;51.422;6.794;2023-12-20T01:15:17;12.77;;;7.27;;
8626;SDS011;4351;51.422;6.794;2023-12-20T01:17:44;16.23;;;7.67;;
8626;SDS011;4351;51.422;6.794;2023-12-20T01:20:13;14.20;;;7.17;;
8626;SDS011;4351;51.422;6.794;2023-12-20T01:22:42;14.10;;;7.73;;
8626;SDS011;4351;51.422;6.794;2023-12-20T01:25:12;16.97;;;7.23;;
8626;SDS011;4351;51.422;6.794;2023-12-20T01:27:40;15.03;;;8.27;;
8626;SDS011;4351;51.422;6.794;2023-12-20T01:30:08;15.33;;;7.67;;
8626;SDS011;4351;51.422;6.794;2023-12-20T01:32:36;19.93;;;7.50;;
8626;SDS011;4351;51.422;6.794;2023-12-20T01:35:04;11.03;;;6.87;;
8626;SDS011;4351;51.422;6.794;2023-12-20T01:37:32;10.90;;;6.90;;
8626;SDS011;4351;51.422;6.794;2023-12-20T01:40:02;15.17;;;7.00;;
8626;SDS011;4351;51.422;6.794;2023-12-20T01:42:29;11.10;;;6.27;;
8626;SDS011;4351;51.422;6.794;2023-12-20T01:44:57;13.80;;;6.30;;
8626;SDS011;4351;51.422;6.794;2023-12-20T01:47:25;18.13;;;7.00;;
8626;SDS011;4351;51.422;6.794;2023-12-20T01:49:53;12.20;;;6.20;;
8626;SDS011;4351;51.422;6.794;2023-12-20T01:52:23;13.20;;;6.90;;
8626;SDS011;4351;51.422;6.794;2023-12-20T01:54:52;17.17;;;6.60;;
8626;SDS011;4351;51.422;6.794;2023-12-20T01:57:24;13.53;;;6.30;;
8626;SDS011;4351;51.422;6.794;2023-12-20T01:59:52;12.57;;;6.53;;
8626;SDS011;4351;51.422;6.794;2023-12-20T02:02:20;15.13;;;6.50;;
8626;SDS011;4351;51.422;6.794;2023-12-20T02:04:48;16.33;;;6.50;;
8626;SDS011;4351;51.422;6.794;2023-12-20T02:07:17;14.93;;;6.60;;
8626;SDS011;4351;51.422;6.794;2023-12-20T02:09:46;17.97;;;6.90;;
8626;SDS011;4351;51.422;6.794;2023-12-20T02:12:13;15.80;;;6.67;;
8626;SDS011;4351;51.422;6.794;2023-12-20T02:14:42;12.03;;;6.30;;
8626;SDS011;4351;51.422;6.794;2023-12-20T02:17:10;16.43;;;6.83;;
8626;SDS011;4351;51.422;6.794;2023-12-20T02:19:38;16.07;;;6.43;;
8626;SDS011;4351;51.422;6.794;2023-12-20T02:22:08;15.30;;;6.60;;
8626;SDS011;4351;51.422;6.794;2023-12-20T02:24:36;18.10;;;6.47;;
8626;SDS011;4351;51.422;6.794;2023-12-20T02:27:05;16.07;;;6.50;;
8626;SDS011;4351;51.422;6.794;2023-12-20T02:29:33;17.97;;;6.63;;
8626;SDS011;4351;51.422;6.794;2023-12-20T02:32:01;15.87;;;6.60;;
8626;SDS011;4351;51.422;6.794;2023-12-20T02:34:29;14.60;;;5.83;;
8626;SDS011;4351;51.422;6.794;2023-12-20T02:36:57;15.63;;;6.37;;
8626;SDS011;4351;51.422;6.794;2023-12-20T02:39:26;15.50;;;5.90;;
8626;SDS011;4351;51.422;6.794;2023-12-20T02:41:53;14.17;;;6.07;;
8626;SDS011;4351;51.422;6.794;2023-12-20T02:44:21;13.00;;;6.60;;
8626;SDS011;4351;51.422;6.794;2023-12-20T02:46:49;13.37;;;6.37;;
8626;SDS011;4351;51.422;6.794;2023-12-20T02:49:16;11.43;;;5.80;;
8626;SDS011;4351;51.422;6.794;2023-12-20T02:51:45;15.47;;;6.30;;
8626;SDS011;4351;51.422;6.794;2023-12-20T02:54:12;13.43;;;5.63;;
8626;SDS011;4351;51.422;6.794;2023-12-20T02:56:42;13.83;;;5.40;;
8626;SDS011;4351;51.422;6.794;2023-12-20T02:59:09;11.33;;;4.90;;
8626;SDS011;4351;51.422;6.794;2023-12-20T03:01:41;14.97;;;5.10;;
8626;SDS011;4351;51.422;6.794;2023-12-20T03:04:09;12.37;;;5.73;;
8626;SDS011;4351;51.422;6.794;2023-12-20T03:06:37;12.37;;;4.87;;
8626;SDS011;4351;51.422;6.794;2023-12-20T03:09:04;11.50;;;4.47;;
8626;SDS011;4351;51.422;6.794;2023-12-20T03:11:32;11.03;;;4.97;;
8626;SDS011;4351;51.422;6.794;2023-12-20T03:14:01;18.73;;;4.90;;
8626;SDS011;4351;51.422;6.794;2023-12-20T03:16:29;16.47;;;4.97;;
8626;SDS011;4351;51.422;6.794;2023-12-20T03:19:02;11.27;;;4.33;;
8626;SDS011;4351;51.422;6.794;2023-12-20T03:21:30;13.77;;;4.00;;
8626;SDS011;4351;51.422;6.794;2023-12-20T03:23:58;15.13;;;3.87;;
8626;SDS011;4351;51.422;6.794;2023-12-20T03:26:25;9.00;;;3.50;;
8626;SDS011;4351;51.422;6.794;2023-12-20T03:28:53;10.43;;;3.97;;
8626;SDS011;4351;51.422;6.794;2023-12-20T03:31:22;12.40;;;3.50;;
8626;SDS011;4351;51.422;6.794;2023-12-20T03:33:50;10.40;;;3.37;;
8626;SDS011;4351;51.422;6.794;2023-12-20T03:36:20;12.70;;;3.67;;
8626;SDS011;4351;51.422;6.794;2023-12-20T03:38:47;8.97;;;3.40;;
8626;SDS011;4351;51.422;6.794;2023-12-20T03:41:15;17.70;;;3.43;;
8626;SDS011;4351;51.422;6.794;2023-12-20T03:43:43;10.17;;;2.90;;
8626;SDS011;4351;51.422;6.794;2023-12-20T03:46:11;13.40;;;3.03;;
8626;SDS011;4351;51.422;6.794;2023-12-20T03:48:40;12.13;;;2.73;;
8626;SDS011;4351;51.422;6.794;2023-12-20T03:51:07;13.73;;;3.37;;
8626;SDS011;4351;51.422;6.794;2023-12-20T03:53:35;14.87;;;3.07;;
8626;SDS011;4351;51.422;6.794;2023-12-20T03:56:03;10.47;;;2.77;;
8626;SDS011;4351;51.422;6.794;2023-12-20T03:58:31;20.87;;;3.30;;
8626;SDS011;4351;51.422;6.794;2023-12-20T04:00:58;7.93;;;2.20;;
8626;SDS011;4351;51.422;6.794;2023-12-20T04:03:26;12.80;;;2.80;;
8626;SDS011;4351;51.422;6.794;2023-12-20T04:05:56;14.80;;;2.50;;
8626;SDS011;4351;51.422;6.794;2023-12-20T04:08:24;11.80;;;3.07;;
8626;SDS011;4351;51.422;6.794;2023-12-20T04:10:52;11.23;;;2.87;;
8626;SDS011;4351;51.422;6.794;2023-12-20T04:13:19;11.27;;;2.67;;
8626;SDS011;4351;51.422;6.794;2023-12-20T04:15:47;14.60;;;2.83;;
8626;SDS011;4351;51.422;6.794;2023-12-20T04:18:17;16.90;;;3.50;;
8626;SDS011;4351;51.422;6.794;2023-12-20T04:20:45;13.63;;;3.47;;
8626;SDS011;4351;51.422;6.794;2023-12-20T04:23:14;11.50;;;2.93;;
8626;SDS011;4351;51.422;6.794;2023-12-20T04:25:42;12.33;;;3.00;;
8626;SDS011;4351;51.422;6.794;2023-12-20T04:28:10;14.80;;;3.20;;
8626;SDS011;4351;51.422;6.794;2023-12-20T04:30:37;13.13;;;3.80;;
8626;SDS011;4351;51.422;6.794;2023-12-20T04:33:05;13.03;;;3.30;;
8626;SDS011;4351;51.422;6.794;2023-12-20T04:35:33;16.70;;;3.37;;
8626;SDS011;4351;51.422;6.794;2023-12-20T04:38:00;10.60;;;3.13;;
8626;SDS011;4351;51.422;6.794;2023-12-20T04:40:29;13.77;;;3.40;;
8626;SDS011;4351;51.422;6.794;2023-12-20T04:42:57;18.13;;;3.60;;
8626;SDS011;4351;51.422;6.794;2023-12-20T04:45:25;14.53;;;3.77;;
8626;SDS011;4351;51.422;6.794;2023-12-20T04:47:53;14.90;;;4.10;;
8626;SDS011;4351;51.422;6.794;2023-12-20T04:50:20;17.53;;;4.60;;
8626;SDS011;4351;51.422;6.794;2023-12-20T04:52:49;15.47;;;4.17;;
8626;SDS011;4351;51.422;6.794;2023-12-20T04:55:16;13.90;;;4.30;;
8626;SDS011;4351;51.422;6.794;2023-12-20T04:57:46;13.50;;;4.00;;
8626;SDS011;4351;51.422;6.794;2023-12-20T05:00:14;14.70;;;4.33;;
8626;SDS011;4351;51.422;6.794;2023-12-20T05:02:42;20.67;;;4.50;;
8626;SDS011;4351;51.422;6.794;2023-12-20T05:05:09;17.17;;;4.83;;
8626;SDS011;4351;51.422;6.794;2023-12-20T05:07:37;12.53;;;4.30;;
8626;SDS011;4351;51.422;6.794;2023-12-20T05:10:05;18.30;;;4.73;;
8626;SDS011;4351;51.422;6.794;2023-12-20T05:12:34;14.70;;;4.47;;
8626;SDS011;4351;51.422;6.794;2023-12-20T05:15:04;17.30;;;4.83;;
8626;SDS011;4351;51.422;6.794;2023-12-20T05:17:32;15.37;;;4.60;;
8626;SDS011;4351;51.422;6.794;2023-12-20T05:20:00;14.67;;;4.77;;
8626;SDS011;4351;51.422;6.794;2023-12-20T05:22:28;15.80;;;4.93;;
8626;SDS011;4351;51.422;6.794;2023-12-20T05:24:55;18.73;;;5.30;;
8626;SDS011;4351;51.422;6.794;2023-12-20T05:27:23;18.77;;;5.60;;
8626;SDS011;4351;51.422;6.794;2023-12-20T05:29:51;18.07;;;4.87;;
8626;SDS011;4351;51.422;6.794;2023-12-20T05:32:20;18.40;;;5.03;;
8626;SDS011;4351;51.422;6.794;2023-12-20T05:34:48;14.67;;;5.00;;
8626;SDS011;4351;51.422;6.794;2023-12-20T05:37:15;15.37;;;5.07;;
8626;SDS011;4351;51.422;6.794;2023-12-20T05:39:43;14.30;;;5.47;;
8626;SDS011;4351;51.422;6.794;2023-12-20T05:42:11;21.07;;;5.53;;
8626;SDS011;4351;51.422;6.794;2023-12-20T05:44:39;15.27;;;5.10;;
8626;SDS011;4351;51.422;6.794;2023-12-20T05:47:06;13.67;;;4.50;;
8626;SDS011;4351;51.422;6.794;2023-12-20T05:49:35;19.67;;;5.17;;
8626;SDS011;4351;51.422;6.794;2023-12-20T05:52:03;21.77;;;6.77;;
8626;SDS011;4351;51.422;6.794;2023-12-20T05:54:31;16.20;;;5.67;;
8626;SDS011;4351;51.422;6.794;2023-12-20T05:56:59;15.97;;;5.17;;
8626;SDS011;4351;51.422;6.794;2023-12-20T05:59:27;20.93;;;4.90;;
8626;SDS011;4351;51.422;6.794;2023-12-20T06:01:54;16.03;;;5.20;;
8626;SDS011;4351;51.422;6.794;2023-12-20T06:04:22;22.23;;;5.17;;
8626;SDS011;4351;51.422;6.794;2023-12-20T06:06:51;22.90;;;5.47;;
8626;SDS011;4351;51.422;6.794;2023-12-20T06:09:19;15.40;;;5.17;;
8626;SDS011;4351;51.422;6.794;2023-12-20T06:11:46;16.10;;;5.40;;
8626;SDS011;4351;51.422;6.794;2023-12-20T06:14:14;18.77;;;5.63;;
8626;SDS011;4351;51.422;6.794;2023-12-20T06:16:42;25.87;;;5.33;;
8626;SDS011;4351;51.422;6.794;2023-12-20T06:19:09;20.13;;;5.90;;
8626;SDS011;4351;51.422;6.794;2023-12-20T06:21:37;20.97;;;5.93;;
8626;SDS011;4351;51.422;6.794;2023-12-20T06:24:09;18.67;;;4.87;;
8626;SDS011;4351;51.422;6.794;2023-12-20T06:26:37;19.17;;;5.17;;
8626;SDS011;4351;51.422;6.794;2023-12-20T06:29:05;16.70;;;4.80;;
8626;SDS011;4351;51.422;6.794;2023-12-20T06:31:33;19.07;;;5.73;;
8626;SDS011;4351;51.422;6.794;2023-12-20T06:34:00;18.23;;;5.37;;
8626;SDS011;4351;51.422;6.794;2023-12-20T06:36:28;19.10;;;5.53;;
8626;SDS011;4351;51.422;6.794;2023-12-20T06:38:56;18.80;;;5.60;;
8626;SDS011;4351;51.422;6.794;2023-12-20T06:41:25;19.43;;;5.07;;
8626;SDS011;4351;51.422;6.794;2023-12-20T06:43:53;15.60;;;4.80;;
8626;SDS011;4351;51.422;6.794;2023-12-20T06:46:20;14.83;;;5.10;;
8626;SDS011;4351;51.422;6.794;2023-12-20T06:48:48;22.93;;;5.17;;
8626;SDS011;4351;51.422;6.794;2023-12-20T06:51:16;15.70;;;4.90;;
8626;SDS011;4351;51.422;6.794;2023-12-20T06:53:46;21.93;;;5.93;;
8626;SDS011;4351;51.422;6.794;2023-12-20T06:56:13;16.33;;;5.20;;
8626;SDS011;4351;51.422;6.794;2023-12-20T06:58:46;16.07;;;4.87;;
8626;SDS011;4351;51.422;6.794;2023-12-20T07:01:14;15.37;;;5.00;;
8626;SDS011;4351;51.422;6.794;2023-12-20T07:03:42;16.33;;;4.97;;
8626;SDS011;4351;51.422;6.794;2023-12-20T07:06:10;19.13;;;4.83;;
8626;SDS011;4351;51.422;6.794;2023-12-20T07:08:38;16.40;;;5.10;;
8626;SDS011;4351;51.422;6.794;2023-12-20T07:11:06;16.00;;;4.60;;
8626;SDS011;4351;51.422;6.794;2023-12-20T07:13:34;18.07;;;4.93;;
8626;SDS011;4351;51.422;6.794;2023-12-20T07:16:03;18.47;;;5.60;;
8626;SDS011;4351;51.422;6.794;2023-12-20T07:18:31;17.03;;;4.90;;
8626;SDS011;4351;51.422;6.794;2023-12-20T07:20:59;15.70;;;4.30;;
8626;SDS011;4351;51.422;6.794;2023-12-20T07:23:27;15.63;;;5.07;;
8626;SDS011;4351;51.422;6.794;2023-12-20T07:25:54;17.57;;;5.53;;
8626;SDS011;4351;51.422;6.794;2023-12-20T07:28:22;14.77;;;4.63;;
8626;SDS011;4351;51.422;6.794;2023-12-20T07:30:51;15.63;;;5.10;;
8626;SDS011;4351;51.422;6.794;2023-12-20T07:33:20;14.53;;;4.80;;
8626;SDS011;4351;51.422;6.794;2023-12-20T07:35:48;16.53;;;4.67;;
8626;SDS011;4351;51.422;6.794;2023-12-20T07:38:18;19.10;;;5.30;;
8626;SDS011;4351;51.422;6.794;2023-12-20T07:40:46;14.67;;;4.60;;
8626;SDS011;4351;51.422;6.794;2023-12-20T07:43:13;20.80;;;4.87;;
8626;SDS011;4351;51.422;6.794;2023-12-20T07:45:41;18.00;;;4.70;;
8626;SDS011;4351;51.422;6.794;2023-12-20T07:48:10;17.93;;;4.77;;
8626;SDS011;4351;51.422;6.794;2023-12-20T07:50:39;14.03;;;5.10;;
8626;SDS011;4351;51.422;6.794;2023-12-20T07:53:07;16.00;;;4.77;;
8626;SDS011;4351;51.422;6.794;2023-12-20T07:55:34;16.37;;;4.50;;
8626;SDS011;4351;51.422;6.794;2023-12-20T07:58:03;20.33;;;5.30;;
8626;SDS011;4351;51.422;6.794;2023-12-20T08:00:32;14.17;;;4.93;;
8626;SDS011;4351;51.422;6.794;2023-12-20T08:02:59;20.83;;;5.20;;
8626;SDS011;4351;51.422;6.794;2023-12-20T08:05:30;16.43;;;5.20;;
8626;SDS011;4351;51.422;6.794;2023-12-20T08:07:59;19.77;;;5.20;;
8626;SDS011;4351;51.422;6.794;2023-12-20T08:10:26;18.20;;;4.90;;
8626;SDS011;4351;51.422;6.794;2023-12-20T08:12:56;20.90;;;5.30;;
8626;SDS011;4351;51.422;6.794;2023-12-20T08:15:24;15.80;;;5.10;;
8626;SDS011;4351;51.422;6.794;2023-12-20T08:17:53;19.20;;;5.90;;
8626;SDS011;4351;51.422;6.794;2023-12-20T08:20:21;15.80;;;5.60;;
8626;SDS011;4351;51.422;6.794;2023-12-20T08:23:03;18.97;;;5.87;;
8626;SDS011;4351;51.422;6.794;2023-12-20T08:25:31;14.83;;;6.03;;
8626;SDS011;4351;51.422;6.794;2023-12-20T08:27:59;16.47;;;5.63;;
8626;SDS011;4351;51.422;6.794;2023-12-20T08:30:27;23.17;;;6.27;;
8626;SDS011;4351;51.422;6.794;2023-12-20T08:32:54;18.27;;;5.83;;
8626;SDS011;4351;51.422;6.794;2023-12-20T08:35:22;15.83;;;5.23;;
8626;SDS011;4351;51.422;6.794;2023-12-20T08:37:50;21.03;;;14.57;;
8626;SDS011;4351;51.422;6.794;2023-12-20T08:40:19;17.23;;;5.93;;
8626;SDS011;4351;51.422;6.794;2023-12-20T08:42:47;21.70;;;5.50;;
8626;SDS011;4351;51.422;6.794;2023-12-20T08:45:16;13.67;;;5.20;;
8626;SDS011;4351;51.422;6.794;2023-12-20T08:47:43;17.30;;;4.90;;
8626;SDS011;4351;51.422;6.794;2023-12-20T08:50:12;12.17;;;4.57;;
8626;SDS011;4351;51.422;6.794;2023-12-20T08:52:40;17.63;;;4.43;;
8626;SDS011;4351;51.422;6.794;2023-12-20T08:55:08;12.77;;;4.03;;
8626;SDS011;4351;51.422;6.794;2023-12-20T08:57:38;18.90;;;4.23;;
8626;SDS011;4351;51.422;6.794;2023-12-20T09:00:06;13.23;;;4.40;;
8626;SDS011;4351;51.422;6.794;2023-12-20T09:02:34;18.37;;;4.40;;
8626;SDS011;4351;51.422;6.794;2023-12-20T09:05:04;14.40;;;4.10;;
8626;SDS011;4351;51.422;6.794;2023-12-20T09:07:31;13.27;;;3.83;;
8626;SDS011;4351;51.422;6.794;2023-12-20T09:09:59;15.60;;;3.93;;
8626;SDS011;4351;51.422;6.794;2023-12-20T09:12:27;14.37;;;3.90;;
8626;SDS011;4351;51.422;6.794;2023-12-20T09:14:56;17.67;;;4.10;;
8626;SDS011;4351;51.422;6.794;2023-12-20T09:17:25;13.87;;;4.17;;
8626;SDS011;4351;51.422;6.794;2023-12-20T09:19:52;18.70;;;4.50;;
8626;SDS011;4351;51.422;6.794;2023-12-20T09:22:21;20.57;;;4.33;;
8626;SDS011;4351;51.422;6.794;2023-12-20T09:24:49;12.93;;;4.97;;
8626;SDS011;4351;51.422;6.794;2023-12-20T09:27:16;15.87;;;4.17;;
8626;SDS011;4351;51.422;6.794;2023-12-20T09:29:44;16.50;;;4.03;;
8626;SDS011;4351;51.422;6.794;2023-12-20T09:32:13;10.67;;;3.90;;
8626;SDS011;4351;51.422;6.794;2023-12-20T09:34:41;12.97;;;4.40;;
8626;SDS011;4351;51.422;6.794;2023-12-20T09:37:09;18.60;;;4.27;;
8626;SDS011;4351;51.422;6.794;2023-12-20T09:39:37;14.00;;;4.43;;
8626;SDS011;4351;51.422;6.794;2023-12-20T09:42:05;16.13;;;4.00;;
8626;SDS011;4351;51.422;6.794;2023-12-20T09:44:33;14.77;;;4.40;;
8626;SDS011;4351;51.422;6.794;2023-12-20T09:47:02;14.33;;;4.80;;
8626;SDS011;4351;51.422;6.794;2023-12-20T09:49:32;19.90;;;4.07;;
8626;SDS011;4351;51.422;6.794;2023-12-20T09:52:00;18.63;;;4.20;;
8626;SDS011;4351;51.422;6.794;2023-12-20T09:54:28;16.60;;;4.50;;
8626;SDS011;4351;51.422;6.794;2023-12-20T09:56:57;16.00;;;4.63;;
8626;SDS011;4351;51.422;6.794;2023-12-20T09:59:24;13.77;;;3.80;;
8626;SDS011;4351;51.422;6.794;2023-12-20T10:01:52;15.37;;;3.97;;
8626;SDS011;4351;51.422;6.794;2023-12-20T10:04:24;21.10;;;4.40;;
8626;SDS011;4351;51.422;6.794;2023-12-20T10:07:01;17.63;;;3.93;;
8626;SDS011;4351;51.422;6.794;2023-12-20T10:09:32;13.47;;;3.93;;
8626;SDS011;4351;51.422;6.794;2023-12-20T10:12:00;17.57;;;4.57;;
8626;SDS011;4351;51.422;6.794;2023-12-20T10:14:28;12.60;;;3.33;;
8626;SDS011;4351;51.422;6.794;2023-12-20T10:17:01;15.27;;;4.30;;
8626;SDS011;4351;51.422;6.794;2023-12-20T10:19:29;15.17;;;4.67;;
8626;SDS011;4351;51.422;6.794;2023-12-20T10:21:59;17.03;;;4.67;;
8626;SDS011;4351;51.422;6.794;2023-12-20T10:24:28;15.10;;;4.57;;
8626;SDS011;4351;51.422;6.794;2023-12-20T10:27:01;14.40;;;3.80;;
8626;SDS011;4351;51.422;6.794;2023-12-20T10:29:33;20.10;;;5.07;;
8626;SDS011;4351;51.422;6.794;2023-12-20T10:32:21;16.70;;;4.53;;
8626;SDS011;4351;51.422;6.794;2023-12-20T10:34:49;12.60;;;3.73;;
8626;SDS011;4351;51.422;6.794;2023-12-20T10:37:18;17.83;;;4.47;;
8626;SDS011;4351;51.422;6.794;2023-12-20T10:39:47;11.83;;;4.13;;
8626;SDS011;4351;51.422;6.794;2023-12-20T10:42:16;13.90;;;4.17;;
8626;SDS011;4351;51.422;6.794;2023-12-20T10:44:44;15.53;;;4.00;;
8626;SDS011;4351;51.422;6.794;2023-12-20T10:47:13;14.73;;;3.87;;
8626;SDS011;4351;51.422;6.794;2023-12-20T10:49:41;16.47;;;4.50;;
8626;SDS011;4351;51.422;6.794;2023-12-20T10:52:09;16.77;;;4.03;;
8626;SDS011;4351;51.422;6.794;2023-12-20T10:54:40;13.00;;;3.80;;
8626;SDS011;4351;51.422;6.794;2023-12-20T10:57:08;16.60;;;4.23;;
8626;SDS011;4351;51.422;6.794;2023-12-20T10:59:36;15.77;;;4.63;;
8626;SDS011;4351;51.422;6.794;2023-12-20T11:02:04;16.03;;;4.30;;
8626;SDS011;4351;51.422;6.794;2023-12-20T11:04:37;15.57;;;4.00;;
8626;SDS011;4351;51.422;6.794;2023-12-20T11:07:08;16.93;;;4.33;;
8626;SDS011;4351;51.422;6.794;2023-12-20T11:09:41;16.23;;;4.03;;
8626;SDS011;4351;51.422;6.794;2023-12-20T11:12:13;14.37;;;3.90;;
8626;SDS011;4351;51.422;6.794;2023-12-20T11:14:42;18.23;;;4.37;;
8626;SDS011;4351;51.422;6.794;2023-12-20T11:17:13;11.90;;;3.80;;
8626;SDS011;4351;51.422;6.794;2023-12-20T11:19:46;15.50;;;4.13;;
8626;SDS011;4351;51.422;6.794;2023-12-20T11:22:32;17.00;;;4.30;;
8626;SDS011;4351;51.422;6.794;2023-12-20T11:25:07;17.90;;;5.00;;
8626;SDS011;4351;51.422;6.794;2023-12-20T11:27:36;13.53;;;3.83;;
8626;SDS011;4351;51.422;6.794;2023-12-20T11:30:04;17.93;;;4.53;;
8626;SDS011;4351;51.422;6.794;2023-12-20T11:32:34;16.77;;;4.10;;
8626;SDS011;4351;51.422;6.794;2023-12-20T11:35:16;16.47;;;4.37;;
8626;SDS011;4351;51.422;6.794;2023-12-20T11:37:44;11.97;;;4.30;;
8626;SDS011;4351;51.422;6.794;2023-12-20T11:40:16;14.20;;;4.70;;
8626;SDS011;4351;51.422;6.794;2023-12-20T11:42:45;14.20;;;4.33;;
8626;SDS011;4351;51.422;6.794;2023-12-20T11:45:16;17.30;;;4.20;;
8626;SDS011;4351;51.422;6.794;2023-12-20T11:47:46;13.33;;;3.90;;
8626;SDS011;4351;51.422;6.794;2023-12-20T11:50:17;9.40;;;4.17;;
8626;SDS011;4351;51.422;6.794;2023-12-20T11:52:45;17.97;;;4.30;;
8626;SDS011;4351;51.422;6.794;2023-12-20T11:55:13;17.07;;;5.23;;
8626;SDS011;4351;51.422;6.794;2023-12-20T11:57:42;10.40;;;4.60;;
8626;SDS011;4351;51.422;6.794;2023-12-20T12:00:12;13.37;;;4.47;;
8626;SDS011;4351;51.422;6.794;2023-12-20T12:02:40;16.80;;;5.30;;
8626;SDS011;4351;51.422;6.794;2023-12-20T12:05:11;14.17;;;4.93;;
8626;SDS011;4351;51.422;6.794;2023-12-20T12:07:39;14.87;;;4.70;;
8626;SDS011;4351;51.422;6.794;2023-12-20T12:10:07;18.63;;;4.70;;
8626;SDS011;4351;51.422;6.794;2023-12-20T12:12:35;14.97;;;4.30;;
8626;SDS011;4351;51.422;6.794;2023-12-20T12:15:05;15.83;;;4.70;;
8626;SDS011;4351;51.422;6.794;2023-12-20T12:17:34;11.07;;;4.03;;
8626;SDS011;4351;51.422;6.794;2023-12-20T12:20:03;15.87;;;4.60;;
8626;SDS011;4351;51.422;6.794;2023-12-20T12:22:32;15.50;;;4.77;;
8626;SDS011;4351;51.422;6.794;2023-12-20T12:25:09;18.27;;;4.37;;
8626;SDS011;4351;51.422;6.794;2023-12-20T12:27:37;17.83;;;5.23;;
8626;SDS011;4351;51.422;6.794;2023-12-20T12:30:08;15.97;;;4.53;;
8626;SDS011;4351;51.422;6.794;2023-12-20T12:32:37;13.17;;;4.33;;
8626;SDS011;4351;51.422;6.794;2023-12-20T12:35:06;12.63;;;4.20;;
8626;SDS011;4351;51.422;6.794;2023-12-20T12:37:36;15.97;;;4.43;;
8626;SDS011;4351;51.422;6.794;2023-12-20T12:40:06;16.93;;;3.97;;
8626;SDS011;4351;51.422;6.794;2023-12-20T12:42:34;12.13;;;4.63;;
8626;SDS011;4351;51.422;6.794;2023-12-20T12:45:01;15.93;;;4.77;;
8626;SDS011;4351;51.422;6.794;2023-12-20T12:47:32;9.30;;;3.80;;
8626;SDS011;4351;51.422;6.794;2023-12-20T12:50:00;15.43;;;4.50;;
8626;SDS011;4351;51.422;6.794;2023-12-20T12:52:28;18.10;;;5.17;;
8626;SDS011;4351;51.422;6.794;2023-12-20T12:54:56;12.37;;;4.30;;
8626;SDS011;4351;51.422;6.794;2023-12-20T12:57:24;14.07;;;4.70;;
8626;SDS011;4351;51.422;6.794;2023-12-20T12:59:53;14.60;;;5.20;;
8626;SDS011;4351;51.422;6.794;2023-12-20T13:02:21;16.17;;;4.60;;
8626;SDS011;4351;51.422;6.794;2023-12-20T13:04:50;13.30;;;4.97;;
8626;SDS011;4351;51.422;6.794;2023-12-20T13:07:18;17.73;;;5.17;;
8626;SDS011;4351;51.422;6.794;2023-12-20T13:09:46;16.13;;;5.13;;
8626;SDS011;4351;51.422;6.794;2023-12-20T13:12:14;13.80;;;5.00;;
8626;SDS011;4351;51.422;6.794;2023-12-20T13:14:42;14.17;;;4.80;;
8626;SDS011;4351;51.422;6.794;2023-12-20T13:17:11;12.93;;;4.90;;
8626;SDS011;4351;51.422;6.794;2023-12-20T13:19:40;12.40;;;4.80;;
8626;SDS011;4351;51.422;6.794;2023-12-20T13:22:09;14.20;;;5.60;;
8626;SDS011;4351;51.422;6.794;2023-12-20T13:24:37;13.30;;;5.27;;
8626;SDS011;4351;51.422;6.794;2023-12-20T13:27:05;12.83;;;5.33;;
8626;SDS011;4351;51.422;6.794;2023-12-20T13:29:32;14.43;;;5.33;;
8626;SDS011;4351;51.422;6.794;2023-12-20T13:32:04;15.00;;;5.63;;
8626;SDS011;4351;51.422;6.794;2023-12-20T13:34:32;19.67;;;5.47;;
8626;SDS011;4351;51.422;6.794;2023-12-20T13:36:59;14.97;;;5.37;;
8626;SDS011;4351;51.422;6.794;2023-12-20T13:39:29;11.07;;;5.20;;
8626;SDS011;4351;51.422;6.794;2023-12-20T13:41:58;17.23;;;5.80;;
8626;SDS011;4351;51.422;6.794;2023-12-20T13:44:27;13.97;;;5.47;;
8626;SDS011;4351;51.422;6.794;2023-12-20T13:46:55;17.33;;;5.77;;
8626;SDS011;4351;51.422;6.794;2023-12-20T13:49:23;15.73;;;6.20;;
8626;SDS011;4351;51.422;6.794;2023-12-20T13:51:53;11.97;;;5.67;;
8626;SDS011;4351;51.422;6.794;2023-12-20T13:54:21;14.43;;;6.10;;
8626;SDS011;4351;51.422;6.794;2023-12-20T13:56:50;14.47;;;5.83;;
8626;SDS011;4351;51.422;6.794;2023-12-20T13:59:37;19.70;;;6.47;;
8626;SDS011;4351;51.422;6.794;2023-12-20T14:02:05;14.60;;;6.30;;
8626;SDS011;4351;51.422;6.794;2023-12-20T14:04:32;14.50;;;6.17;;
8626;SDS011;4351;51.422;6.794;2023-12-20T14:07:08;14.43;;;6.40;;
8626;SDS011;4351;51.422;6.794;2023-12-20T14:09:38;21.30;;;7.93;;
8626;SDS011;4351;51.422;6.794;2023-12-20T14:12:10;20.03;;;7.60;;
8626;SDS011;4351;51.422;6.794;2023-12-20T14:14:38;18.40;;;6.97;;
8626;SDS011;4351;51.422;6.794;2023-12-20T14:17:06;15.00;;;7.20;;
8626;SDS011;4351;51.422;6.794;2023-12-20T14:19:33;21.77;;;8.73;;
8626;SDS011;4351;51.422;6.794;2023-12-20T14:22:01;18.27;;;6.70;;
8626;SDS011;4351;51.422;6.794;2023-12-20T14:24:31;14.40;;;7.00;;
8626;SDS011;4351;51.422;6.794;2023-12-20T14:27:01;20.47;;;8.47;;
8626;SDS011;4351;51.422;6.794;2023-12-20T14:29:30;15.60;;;7.10;;
8626;SDS011;4351;51.422;6.794;2023-12-20T14:31:58;22.57;;;7.80;;
8626;SDS011;4351;51.422;6.794;2023-12-20T14:34:27;16.30;;;6.83;;
8626;SDS011;4351;51.422;6.794;2023-12-20T14:36:55;16.87;;;7.00;;
8626;SDS011;4351;51.422;6.794;2023-12-20T14:39:24;21.07;;;6.80;;
8626;SDS011;4351;51.422;6.794;2023-12-20T14:41:51;17.87;;;6.20;;
8626;SDS011;4351;51.422;6.794;2023-12-20T14:44:22;18.17;;;6.30;;
8626;SDS011;4351;51.422;6.794;2023-12-20T14:46:51;18.50;;;7.03;;
8626;SDS011;4351;51.422;6.794;2023-12-20T14:49:19;17.97;;;6.20;;
8626;SDS011;4351;51.422;6.794;2023-12-20T14:51:48;16.93;;;5.70;;
8626;SDS011;4351;51.422;6.794;2023-12-20T14:54:15;16.70;;;5.77;;
8626;SDS011;4351;51.422;6.794;2023-12-20T14:56:44;13.20;;;6.00;;
8626;SDS011;4351;51.422;6.794;2023-12-20T14:59:12;15.37;;;5.70;;
8626;SDS011;4351;51.422;6.794;2023-12-20T15:01:40;14.77;;;5.97;;
8626;SDS011;4351;51.422;6.794;2023-12-20T15:04:10;17.67;;;5.67;;
8626;SDS011;4351;51.422;6.794;2023-12-20T15:06:38;16.20;;;5.77;;
8626;SDS011;4351;51.422;6.794;2023-12-20T15:09:06;14.20;;;5.23;;
8626;SDS011;4351;51.422;6.794;2023-12-20T15:11:34;18.60;;;5.43;;